Time;durP1;ratioP1;P1;durP2;ratioP2;P2;SDS_P1;SDS_P2;PMS_P1;PMS_P2;Temp;Humidity;BMP_temperature;BMP_pressure;BME280_temperature;BME280_humidity;BME280_pressure;Samples;Min_cycle;Max_cycle;Signal;HPM_P1;HPM_P2
2022/11/09 00:00:20;;;;;;;9.13;4.97;;;11.60;99.90;;;;;;10421316;28;20041;-77
2022/11/09 00:05:23;;;;;;;7.35;4.50;;;11.40;99.90;;;;;;10419548;28;20084;-76
2022/11/09 00:10:25;;;;;;;9.40;5.38;;;11.20;99.90;;;;;;10392960;28;20056;-77
2022/11/09 00:15:27;;;;;;;9.93;5.53;;;11.30;99.90;;;;;;10385439;28;20057;-75
2022/11/09 00:20:30;;;;;;;9.15;5.60;;;11.30;99.90;;;;;;10419502;28;20072;-77
2022/11/09 00:25:32;;;;;;;12.00;6.80;;;11.40;99.90;;;;;;10422738;28;20457;-76
2022/11/09 00:30:34;;;;;;;8.93;5.70;;;11.50;99.90;;;;;;10420862;28;20107;-77
2022/11/09 00:35:39;;;;;;;11.25;6.82;;;11.50;99.90;;;;;;10416485;28;20050;-77
2022/11/09 00:40:41;;;;;;;12.82;5.97;;;11.50;99.90;;;;;;10410832;28;20557;-77
2022/11/09 00:45:43;;;;;;;11.05;6.03;;;11.50;99.90;;;;;;10420197;28;20045;-75
2022/11/09 00:50:50;;;;;;;9.00;5.22;;;11.50;99.90;;;;;;10405142;28;20038;-75
2022/11/09 00:55:57;;;;;;;9.35;5.40;;;11.40;99.90;;;;;;10419594;28;20045;-74
2022/11/09 01:01:06;;;;;;;9.30;5.65;;;11.40;99.90;;;;;;10417342;28;20049;-76
2022/11/09 01:06:14;;;;;;;9.10;5.40;;;11.40;99.90;;;;;;10418708;28;20049;-77
2022/11/09 01:11:18;;;;;;;9.23;5.50;;;11.50;99.90;;;;;;10418085;28;20121;-74
2022/11/09 01:16:22;;;;;;;10.68;5.57;;;11.40;99.90;;;;;;10417310;28;20050;-74
2022/11/09 01:21:27;;;;;;;12.95;5.40;;;11.30;99.90;;;;;;10428756;28;20045;-77
2022/11/09 01:26:29;;;;;;;10.38;5.75;;;11.30;99.90;;;;;;10404271;28;20062;-77
2022/11/09 01:31:31;;;;;;;11.05;5.25;;;11.20;99.90;;;;;;10406620;28;20080;-75
2022/11/09 01:36:34;;;;;;;12.68;5.57;;;11.30;99.90;;;;;;10416220;28;20045;-75
2022/11/09 01:41:36;;;;;;;9.35;4.95;;;11.30;99.90;;;;;;10417430;28;20053;-77
2022/11/09 01:46:47;;;;;;;9.50;5.68;;;11.30;99.90;;;;;;10416451;28;20057;-77
2022/11/09 01:51:54;;;;;;;10.57;5.10;;;11.30;99.90;;;;;;10416678;28;20104;-78
2022/11/09 01:57:01;;;;;;;8.90;5.25;;;11.30;99.90;;;;;;10389448;28;20065;-76
2022/11/09 02:02:04;;;;;;;9.48;5.50;;;11.30;99.90;;;;;;10376270;28;20050;-76
2022/11/09 02:07:08;;;;;;;10.23;5.20;;;11.30;99.90;;;;;;10397432;28;20049;-74
2022/11/09 02:12:11;;;;;;;8.10;4.88;;;11.20;99.90;;;;;;10413017;28;20096;-75
2022/11/09 02:17:13;;;;;;;8.30;4.90;;;11.10;99.90;;;;;;10417219;28;20041;-75
2022/11/09 02:22:16;;;;;;;9.57;4.97;;;11.00;99.90;;;;;;10416785;28;20501;-76
2022/11/09 02:27:20;;;;;;;8.35;5.03;;;11.00;99.90;;;;;;10403541;28;20105;-76
2022/11/09 02:32:26;;;;;;;9.05;5.47;;;11.10;99.90;;;;;;10417238;28;20083;-74
2022/11/09 02:37:34;;;;;;;10.38;6.13;;;11.00;99.90;;;;;;10395650;28;20097;-74
2022/11/09 02:42:37;;;;;;;10.55;6.80;;;11.10;99.90;;;;;;10405185;28;20103;-74
2022/11/09 02:47:38;;;;;;;10.07;6.57;;;11.10;99.90;;;;;;10397096;28;20069;-74
2022/11/09 02:52:42;;;;;;;10.38;5.78;;;11.20;99.90;;;;;;10400359;28;20103;-75
2022/11/09 02:57:44;;;;;;;9.13;5.63;;;11.20;99.90;;;;;;10413523;28;20091;-75
2022/11/09 03:02:45;;;;;;;9.90;6.03;;;11.10;99.90;;;;;;10415639;28;20176;-75
2022/11/09 03:07:49;;;;;;;9.88;5.50;;;11.10;99.90;;;;;;10414609;28;20103;-75
2022/11/09 03:12:51;;;;;;;8.43;5.20;;;11.20;99.90;;;;;;10413009;28;20450;-75
2022/11/09 03:17:52;;;;;;;9.15;5.20;;;11.20;99.90;;;;;;10414959;28;20103;-75
2022/11/09 03:22:59;;;;;;;8.98;4.60;;;11.30;99.90;;;;;;10381003;28;20045;-76
2022/11/09 03:28:04;;;;;;;7.45;3.88;;;11.40;99.90;;;;;;10374409;28;20096;-76
2022/11/09 03:33:08;;;;;;;8.15;4.25;;;11.40;99.90;;;;;;10399266;28;20041;-75
2022/11/09 03:38:12;;;;;;;9.15;4.45;;;11.50;99.90;;;;;;10387802;28;20049;-77
2022/11/09 03:43:14;;;;;;;7.63;4.15;;;11.50;99.90;;;;;;10423690;28;20045;-76
2022/11/09 03:48:16;;;;;;;9.80;4.53;;;11.50;99.90;;;;;;10427649;28;20081;-76
2022/11/09 03:53:19;;;;;;;7.50;4.00;;;11.60;99.90;;;;;;10393706;28;20415;-74
2022/11/09 03:58:21;;;;;;;8.40;4.30;;;11.60;99.90;;;;;;10413550;28;20099;-74
2022/11/09 04:03:23;;;;;;;9.93;4.70;;;11.60;99.90;;;;;;10410166;28;20049;-78
2022/11/09 04:08:26;;;;;;;8.52;4.60;;;11.70;99.90;;;;;;10413227;28;20072;-75
2022/11/09 04:13:28;;;;;;;9.43;4.82;;;11.60;99.90;;;;;;10414028;28;20072;-76
2022/11/09 04:18:30;;;;;;;7.22;4.45;;;11.60;99.90;;;;;;10408697;28;20045;-77
2022/11/09 04:23:33;;;;;;;7.28;4.40;;;11.70;99.90;;;;;;10412393;28;20053;-75
2022/11/09 04:28:35;;;;;;;6.72;4.28;;;11.70;99.90;;;;;;10419041;28;20535;-78
2022/11/09 04:33:37;;;;;;;9.57;4.32;;;11.60;99.90;;;;;;10429955;28;20080;-75
2022/11/09 04:38:40;;;;;;;8.07;4.68;;;11.70;99.90;;;;;;10401793;28;20525;-77
2022/11/09 04:43:42;;;;;;;8.32;4.03;;;11.60;99.90;;;;;;10421826;28;20376;-77
2022/11/09 04:48:44;;;;;;;7.82;4.10;;;11.70;99.90;;;;;;10418965;28;20064;-77
2022/11/09 04:53:47;;;;;;;8.82;3.90;;;11.60;99.90;;;;;;10420883;28;20041;-79
2022/11/09 04:58:49;;;;;;;7.13;3.47;;;11.80;99.90;;;;;;10422866;28;20495;-77
2022/11/09 05:03:51;;;;;;;6.10;2.80;;;11.70;99.90;;;;;;10426340;28;20049;-79
2022/11/09 05:08:55;;;;;;;6.97;3.63;;;11.80;99.90;;;;;;10428816;28;20111;-78
2022/11/09 05:13:57;;;;;;;6.10;3.10;;;11.80;99.90;;;;;;10431968;28;20205;-77
2022/11/09 05:18:59;;;;;;;6.38;2.80;;;11.90;99.90;;;;;;10423184;28;20076;-78
2022/11/09 05:24:02;;;;;;;5.55;2.90;;;12.00;99.90;;;;;;10436266;28;20053;-77
2022/11/09 05:29:07;;;;;;;5.10;3.00;;;12.00;99.90;;;;;;10430440;28;20052;-74
2022/11/09 05:34:13;;;;;;;5.47;2.88;;;12.00;99.90;;;;;;10412803;28;20046;-77
2022/11/09 05:39:16;;;;;;;6.43;2.78;;;11.90;99.90;;;;;;10426587;28;20414;-76
2022/11/09 05:44:18;;;;;;;7.93;2.67;;;11.80;99.90;;;;;;10421165;28;20120;-78
2022/11/09 05:49:20;;;;;;;7.53;2.58;;;12.00;99.90;;;;;;10405288;28;20100;-77
2022/11/09 05:54:23;;;;;;;5.78;2.17;;;12.00;99.90;;;;;;10382497;28;20054;-77
2022/11/09 05:59:25;;;;;;;7.07;2.55;;;12.00;99.90;;;;;;10380932;28;20104;-75
2022/11/09 06:04:27;;;;;;;5.20;2.45;;;12.00;99.90;;;;;;10395740;28;20054;-78
2022/11/09 06:09:32;;;;;;;6.80;3.20;;;12.10;99.90;;;;;;10419681;22;20042;-78
2022/11/09 06:14:34;;;;;;;10.75;3.90;;;12.20;99.90;;;;;;10367670;28;20058;-77
2022/11/09 06:19:36;;;;;;;11.18;5.10;;;12.20;99.90;;;;;;10375618;28;20393;-79
2022/11/09 06:24:39;;;;;;;10.27;5.85;;;11.90;99.90;;;;;;10375846;28;20105;-78
2022/11/09 06:29:41;;;;;;;10.35;6.85;;;12.00;99.90;;;;;;10375063;28;20058;-79
2022/11/09 06:34:43;;;;;;;9.98;6.32;;;11.90;99.90;;;;;;10375792;28;20100;-77
2022/11/09 06:39:47;;;;;;;12.88;6.40;;;11.70;99.90;;;;;;10375383;28;20053;-77
2022/11/09 06:44:48;;;;;;;9.70;6.13;;;11.70;99.90;;;;;;10374053;28;20077;-78
2022/11/09 06:49:50;;;;;;;9.43;5.60;;;11.70;99.90;;;;;;10375239;28;20053;-78
2022/11/09 06:54:54;;;;;;;11.45;6.80;;;11.70;99.90;;;;;;10373455;28;20045;-77
2022/11/09 06:59:56;;;;;;;10.50;6.93;;;11.70;99.90;;;;;;10374186;28;20565;-77
2022/11/09 07:04:57;;;;;;;10.48;5.97;;;11.70;99.90;;;;;;10374150;28;20472;-77
2022/11/09 07:10:01;;;;;;;9.35;5.57;;;11.70;99.90;;;;;;10373562;28;20111;-77
2022/11/09 07:15:04;;;;;;;8.60;5.45;;;11.70;99.90;;;;;;10373771;28;20100;-78
2022/11/09 07:20:07;;;;;;;10.18;5.82;;;11.70;99.90;;;;;;10373397;28;20046;-77
2022/11/09 07:25:12;;;;;;;7.75;4.80;;;11.70;99.90;;;;;;10373638;28;20053;-78
2022/11/09 07:30:15;;;;;;;7.78;5.22;;;11.70;99.90;;;;;;10373138;28;20062;-77
2022/11/09 07:35:17;;;;;;;7.78;5.35;;;11.70;99.90;;;;;;10372887;28;20038;-78
2022/11/09 07:40:20;;;;;;;8.05;5.28;;;11.80;99.90;;;;;;10374336;28;20050;-79
2022/11/09 07:45:22;;;;;;;9.93;5.88;;;11.70;99.90;;;;;;10373297;28;20482;-78
2022/11/09 07:50:25;;;;;;;24.40;12.45;;;11.70;99.90;;;;;;10373102;28;20057;-79
2022/11/09 07:55:30;;;;;;;11.85;7.47;;;11.70;99.90;;;;;;10373497;28;20104;-78
2022/11/09 08:00:35;;;;;;;9.80;6.85;;;11.50;99.90;;;;;;10371801;28;20063;-78
2022/11/09 08:05:38;;;;;;;9.35;5.47;;;11.30;99.90;;;;;;10372302;28;20476;-78
2022/11/09 08:10:42;;;;;;;7.15;3.78;;;11.50;99.90;;;;;;10380246;28;20061;-79
2022/11/09 08:15:44;;;;;;;7.07;4.20;;;11.70;99.90;;;;;;10380410;28;20045;-76
2022/11/09 08:20:47;;;;;;;6.45;3.20;;;11.90;99.90;;;;;;10380053;28;20546;-78
2022/11/09 08:25:51;;;;;;;7.18;3.35;;;11.80;99.90;;;;;;10380296;28;20046;-80
2022/11/09 08:30:58;;;;;;;5.40;3.03;;;11.90;99.90;;;;;;10379437;28;20050;-75
2022/11/09 08:35:59;;;;;;;5.45;3.17;;;12.00;99.90;;;;;;10379486;28;20451;-78
2022/11/09 08:41:03;;;;;;;6.25;2.83;;;12.00;99.90;;;;;;10379613;28;20076;-77
2022/11/09 08:46:05;;;;;;;5.80;2.65;;;12.00;99.90;;;;;;10379224;28;20041;-77
2022/11/09 08:51:07;;;;;;;4.78;2.13;;;12.00;99.90;;;;;;10375477;28;20057;-75
2022/11/09 08:56:11;;;;;;;3.40;1.70;;;12.10;99.90;;;;;;10373850;28;20100;-78
2022/11/09 09:01:14;;;;;;;3.83;1.80;;;12.10;99.90;;;;;;10370692;28;20050;-77
2022/11/09 09:06:16;;;;;;;4.00;1.85;;;12.20;99.90;;;;;;10372575;28;20054;-77
2022/11/09 09:11:19;;;;;;;3.78;1.50;;;12.20;99.90;;;;;;10372564;28;20092;-78
2022/11/09 09:16:21;;;;;;;2.38;1.13;;;12.30;99.90;;;;;;10371957;28;20053;-77
2022/11/09 09:21:24;;;;;;;3.75;1.30;;;12.30;99.90;;;;;;10372305;28;20050;-78
2022/11/09 09:26:27;;;;;;;3.60;1.00;;;12.30;99.90;;;;;;10371689;28;20442;-76
2022/11/09 09:31:29;;;;;;;1.88;0.90;;;12.30;99.90;;;;;;10372002;28;20061;-78
2022/11/09 09:36:31;;;;;;;2.08;0.80;;;12.30;99.90;;;;;;10372233;28;20124;-79
2022/11/09 09:41:40;;;;;;;1.45;0.60;;;12.40;99.90;;;;;;10379837;28;20061;-78
2022/11/09 09:46:48;;;;;;;2.10;0.70;;;12.40;99.90;;;;;;10372756;28;20058;-77
2022/11/09 09:51:56;;;;;;;1.73;0.70;;;12.50;99.90;;;;;;10370871;28;20049;-77
2022/11/09 09:57:02;;;;;;;1.10;0.60;;;12.70;99.90;;;;;;10371182;28;20346;-76
2022/11/09 10:02:19;;;;;;;1.27;0.57;;;12.90;99.90;;;;;;10368505;28;20312;-75
2022/11/09 10:07:28;;;;;;;1.50;0.80;;;13.10;99.90;;;;;;10370752;28;20053;-75
2022/11/09 10:12:46;;;;;;;1.98;0.80;;;13.30;99.90;;;;;;10369999;28;20108;-76
2022/11/09 10:18:09;;;;;;;2.07;0.73;;;13.40;99.90;;;;;;10370096;28;20058;-76
2022/11/09 10:23:35;;;;;;;1.73;0.80;;;13.70;99.90;;;;;;10369689;28;20562;-75
2022/11/09 10:28:42;;;;;;;2.08;0.90;;;13.70;99.90;;;;;;10369001;28;20173;-75
2022/11/09 10:33:46;;;;;;;2.67;1.02;;;14.00;99.90;;;;;;10369775;28;20061;-78
2022/11/09 10:38:51;;;;;;;2.95;0.82;;;14.10;99.90;;;;;;10369576;28;20049;-77
2022/11/09 10:43:54;;;;;;;3.38;1.30;;;14.30;99.90;;;;;;10369102;28;20081;-76
2022/11/09 10:48:56;;;;;;;4.65;1.50;;;14.40;99.90;;;;;;10369434;28;20053;-77
2022/11/09 10:54:15;;;;;;;3.90;1.70;;;14.50;99.90;;;;;;10369195;28;20057;-78
2022/11/09 10:59:51;;;;;;;3.72;1.50;;;14.50;99.90;;;;;;10366390;28;20192;-78
2022/11/09 11:05:28;;;;;;;3.45;1.50;;;14.60;99.90;;;;;;10253628;28;20070;-76
2022/11/09 11:10:29;;;;;;;3.42;1.60;;;14.70;99.90;;;;;;10327576;28;20149;-78
2022/11/09 11:15:39;;;;;;;3.55;1.40;;;14.90;99.90;;;;;;10351164;28;21309;-76
2022/11/09 11:20:41;;;;;;;3.40;1.38;;;14.90;99.90;;;;;;10368441;28;20046;-77
2022/11/09 11:26:05;;;;;;;3.38;1.50;;;15.00;99.90;;;;;;10367705;28;20495;-78
2022/11/09 11:31:13;;;;;;;3.65;1.50;;;15.00;99.90;;;;;;10366873;28;20081;-78
2022/11/09 11:36:28;;;;;;;3.45;1.30;;;15.10;99.90;;;;;;10367563;28;20054;-78
2022/11/09 11:41:54;;;;;;;3.75;1.40;;;15.10;99.90;;;;;;10370356;28;20073;-77
2022/11/09 11:47:09;;;;;;;4.55;1.60;;;15.10;99.90;;;;;;10376151;28;20100;-78
2022/11/09 11:52:18;;;;;;;4.25;1.42;;;15.10;99.90;;;;;;10375732;28;20050;-78
2022/11/09 11:57:29;;;;;;;6.43;1.50;;;15.10;99.90;;;;;;10375797;28;20074;-75
2022/11/09 12:03:07;;;;;;;4.75;1.70;;;15.10;99.90;;;;;;10373740;28;20081;-76
2022/11/09 12:08:19;;;;;;;4.40;1.75;;;15.20;99.90;;;;;;10375726;28;20053;-76
2022/11/09 12:13:56;;;;;;;4.30;1.80;;;15.30;99.90;;;;;;10375108;28;20108;-77
2022/11/09 12:19:48;;;;;;;46.53;23.23;;;15.30;99.90;;;;;;10375003;28;20518;-76
2022/11/09 12:25:00;;;;;;;6.45;3.60;;;15.30;99.90;;;;;;10359574;28;20052;-78
2022/11/09 12:30:11;;;;;;;5.13;1.90;;;15.30;99.90;;;;;;10374446;28;20054;-78
2022/11/09 12:35:29;;;;;;;5.80;2.03;;;15.30;99.90;;;;;;10374698;28;20057;-78
2022/11/09 12:40:35;;;;;;;4.47;1.73;;;15.30;99.90;;;;;;10335049;28;20062;-76
2022/11/09 12:45:39;;;;;;;10.48;4.55;;;15.30;99.90;;;;;;10374358;28;20053;-77
2022/11/09 12:50:43;;;;;;;6.50;2.58;;;15.40;99.90;;;;;;10373703;28;20147;-79
2022/11/09 12:55:53;;;;;;;4.10;2.00;;;15.50;99.90;;;;;;10372469;28;20464;-76
2022/11/09 13:00:58;;;;;;;5.65;2.00;;;15.50;99.90;;;;;;10371737;28;20487;-75
2022/11/09 13:06:15;;;;;;;4.03;1.70;;;15.40;99.90;;;;;;10372236;28;20054;-75
2022/11/09 13:11:22;;;;;;;4.33;1.60;;;15.40;99.90;;;;;;10372031;28;20062;-74
2022/11/09 13:16:34;;;;;;;4.75;1.80;;;15.40;99.90;;;;;;10372315;28;20136;-76
2022/11/09 13:21:39;;;;;;;4.05;1.88;;;15.40;99.90;;;;;;10372538;28;20046;-76
2022/11/09 13:26:59;;;;;;;9.90;3.33;;;15.40;99.90;;;;;;10371743;28;20537;-76
2022/11/09 13:32:30;;;;;;;4.15;1.85;;;15.40;99.90;;;;;;10372423;28;20100;-77
2022/11/09 13:37:54;;;;;;;3.28;1.60;;;15.40;99.90;;;;;;10371660;28;20085;-77
2022/11/09 13:43:00;;;;;;;5.38;1.52;;;15.30;99.90;;;;;;10371765;28;20582;-77
2022/11/09 13:48:08;;;;;;;4.80;1.70;;;15.40;99.90;;;;;;10331028;28;20082;-79
2022/11/09 13:53:31;;;;;;;3.53;1.40;;;15.30;99.90;;;;;;10367609;28;20104;-77
2022/11/09 13:58:37;;;;;;;3.03;1.27;;;15.30;99.90;;;;;;10371183;28;20050;-76
2022/11/09 14:03:38;;;;;;;4.03;1.30;;;15.20;99.90;;;;;;10367571;28;20076;-74
2022/11/09 14:08:43;;;;;;;4.38;1.40;;;15.20;99.90;;;;;;10370027;28;20050;-75
2022/11/09 14:14:30;;;;;;;5.30;1.23;;;15.20;99.90;;;;;;10369905;28;20141;-76
2022/11/09 14:19:42;;;;;;;5.47;1.65;;;15.10;99.90;;;;;;10343652;28;20134;-76
2022/11/09 14:24:46;;;;;;;6.25;1.80;;;15.10;99.90;;;;;;10364270;28;20049;-77
2022/11/09 14:29:52;;;;;;;5.65;1.42;;;15.10;99.90;;;;;;10369990;28;20050;-75
2022/11/09 14:35:11;;;;;;;3.65;1.50;;;15.10;99.90;;;;;;10369289;28;20075;-75
2022/11/09 14:40:25;;;;;;;3.92;1.40;;;15.00;99.90;;;;;;10369521;28;20100;-74
2022/11/09 14:45:28;;;;;;;4.60;1.50;;;15.00;99.90;;;;;;10368897;28;20081;-78
2022/11/09 14:50:33;;;;;;;4.07;1.60;;;15.00;99.90;;;;;;10368539;28;20574;-75
2022/11/09 14:55:40;;;;;;;4.75;1.60;;;15.00;99.90;;;;;;10368644;28;20116;-76
2022/11/09 15:00:42;;;;;;;3.35;1.50;;;14.90;99.90;;;;;;10367150;28;20132;-77
2022/11/09 15:05:45;;;;;;;2.85;1.35;;;14.90;99.90;;;;;;10368858;28;20096;-77
2022/11/09 15:10:53;;;;;;;3.92;1.75;;;14.80;99.90;;;;;;10368540;28;20065;-76
2022/11/09 15:15:55;;;;;;;3.30;1.50;;;14.80;99.90;;;;;;10366895;28;20072;-75
2022/11/09 15:21:17;;;;;;;2.88;1.23;;;14.80;99.90;;;;;;10367375;28;20128;-78
2022/11/09 15:26:37;;;;;;;4.07;1.77;;;14.70;99.90;;;;;;10367408;28;20082;-75
2022/11/09 15:31:59;;;;;;;3.85;2.00;;;14.70;99.90;;;;;;10367383;28;20049;-77
2022/11/09 15:37:00;;;;;;;4.18;2.17;;;14.60;99.90;;;;;;10367346;28;20049;-76
2022/11/09 15:42:04;;;;;;;4.60;2.08;;;14.50;99.90;;;;;;10366629;28;20525;-77
2022/11/09 15:47:22;;;;;;;5.35;2.05;;;14.50;99.90;;;;;;10364877;28;20789;-76
2022/11/09 15:52:24;;;;;;;4.78;2.10;;;14.40;99.90;;;;;;10366827;28;20096;-75
2022/11/09 15:57:28;;;;;;;5.03;2.22;;;14.40;99.90;;;;;;10365118;28;20070;-76
2022/11/09 16:02:29;;;;;;;4.25;1.90;;;14.30;99.90;;;;;;10354084;28;20077;-77
2022/11/09 16:07:31;;;;;;;4.85;2.10;;;14.20;99.90;;;;;;10357143;28;20488;-75
2022/11/09 16:12:37;;;;;;;4.88;2.20;;;14.20;99.90;;;;;;10343828;28;20128;-78
2022/11/09 16:17:39;;;;;;;4.82;2.30;;;14.10;99.90;;;;;;10361400;28;20082;-78
2022/11/09 16:22:41;;;;;;;5.53;2.30;;;14.10;99.90;;;;;;10367416;28;20073;-74
2022/11/09 16:27:44;;;;;;;5.18;2.20;;;14.00;99.90;;;;;;10367659;28;20119;-77
2022/11/09 16:32:46;;;;;;;4.78;2.33;;;14.00;99.90;;;;;;10374077;28;20049;-77
2022/11/09 16:37:50;;;;;;;6.55;2.70;;;13.90;99.90;;;;;;10374243;28;20084;-76
2022/11/09 16:42:53;;;;;;;6.78;2.85;;;13.90;99.90;;;;;;10373547;28;20054;-78
2022/11/09 16:47:56;;;;;;;5.00;2.80;;;13.90;99.90;;;;;;10375028;28;20112;-79
2022/11/09 16:52:58;;;;;;;5.68;2.60;;;13.80;99.90;;;;;;10373234;28;20125;-76
2022/11/09 16:58:02;;;;;;;6.22;3.20;;;13.80;99.90;;;;;;10373303;28;20086;-78
2022/11/09 17:03:04;;;;;;;6.15;3.40;;;13.70;99.90;;;;;;10371525;28;20396;-78
2022/11/09 17:08:07;;;;;;;7.15;3.63;;;13.70;99.90;;;;;;10371397;28;20111;-77
2022/11/09 17:13:11;;;;;;;6.47;3.92;;;13.70;99.90;;;;;;10366948;28;20058;-78
2022/11/09 17:18:13;;;;;;;7.05;3.83;;;13.70;99.90;;;;;;10370853;28;20108;-75
2022/11/09 17:23:18;;;;;;;7.10;3.95;;;13.70;99.90;;;;;;10370818;28;20104;-77
2022/11/09 17:28:22;;;;;;;6.28;3.05;;;13.60;99.90;;;;;;10364177;28;20141;-75
2022/11/09 17:33:24;;;;;;;16.75;9.32;;;13.60;99.90;;;;;;10369955;28;20569;-76
2022/11/09 17:38:27;;;;;;;8.75;3.70;;;13.60;99.90;;;;;;10371700;28;20056;-76
2022/11/09 17:43:31;;;;;;;4.93;2.80;;;13.60;99.90;;;;;;10370256;28;20117;-78
2022/11/09 17:48:35;;;;;;;6.78;2.30;;;13.60;99.90;;;;;;10331193;28;20117;-77
2022/11/09 17:53:38;;;;;;;3.97;1.90;;;13.60;99.90;;;;;;10369592;28;20388;-77
2022/11/09 17:58:43;;;;;;;3.08;1.40;;;13.70;99.90;;;;;;10370780;28;20492;-78
2022/11/09 18:03:45;;;;;;;3.65;1.15;;;13.70;99.90;;;;;;10337787;28;20056;-75
2022/11/09 18:08:48;;;;;;;4.38;1.85;;;13.60;99.90;;;;;;10367043;28;20050;-76
2022/11/09 18:13:52;;;;;;;3.45;1.45;;;13.60;99.90;;;;;;10369706;28;20058;-77
2022/11/09 18:19:00;;;;;;;3.58;1.38;;;13.70;99.90;;;;;;10368412;28;20065;-77
2022/11/09 18:24:02;;;;;;;5.53;2.63;;;13.70;99.90;;;;;;10370232;28;20049;-79
2022/11/09 18:29:05;;;;;;;14.93;7.13;;;13.70;99.90;;;;;;10369168;28;20313;-77
2022/11/09 18:34:07;;;;;;;4.50;1.88;;;13.60;99.90;;;;;;10369607;28;20050;-76
2022/11/09 18:39:09;;;;;;;4.40;2.05;;;13.60;99.90;;;;;;10367244;28;20085;-78
2022/11/09 18:44:12;;;;;;;5.90;2.13;;;13.60;99.90;;;;;;10369821;28;20054;-76
2022/11/09 18:49:14;;;;;;;3.75;1.10;;;13.70;99.90;;;;;;10365702;28;20054;-75
2022/11/09 18:54:16;;;;;;;3.03;1.40;;;13.60;99.90;;;;;;10363100;28;20077;-77
2022/11/09 18:59:19;;;;;;;8.02;4.68;;;13.60;99.90;;;;;;10366854;28;20038;-77
2022/11/09 19:04:21;;;;;;;5.20;2.95;;;13.50;99.90;;;;;;10349590;28;20084;-77
2022/11/09 19:09:34;;;;;;;3.97;2.10;;;13.40;99.90;;;;;;10363934;28;20081;-74
2022/11/09 19:14:39;;;;;;;4.18;1.80;;;13.40;99.90;;;;;;10363399;28;20050;-78
2022/11/09 19:19:42;;;;;;;5.43;2.60;;;13.30;99.90;;;;;;10366052;28;20065;-78
2022/11/09 19:24:45;;;;;;;4.63;2.35;;;13.20;99.90;;;;;;10360042;28;20449;-78
2022/11/09 19:29:48;;;;;;;5.68;2.50;;;13.10;99.90;;;;;;10366841;28;20566;-79
2022/11/09 19:34:50;;;;;;;4.15;2.40;;;13.20;99.90;;;;;;10365082;28;20042;-78
2022/11/09 19:39:52;;;;;;;4.43;2.03;;;13.10;99.90;;;;;;10361051;28;20494;-75
2022/11/09 19:44:56;;;;;;;5.00;2.20;;;13.10;99.90;;;;;;10366337;28;20135;-77
2022/11/09 19:49:58;;;;;;;5.35;2.38;;;13.10;99.90;;;;;;10363656;28;20114;-76
2022/11/09 19:55:00;;;;;;;4.63;2.70;;;13.10;99.90;;;;;;10367253;28;20412;-78
2022/11/09 20:00:05;;;;;;;5.43;2.80;;;13.10;99.90;;;;;;10364019;28;20078;-76
2022/11/09 20:05:08;;;;;;;5.00;3.00;;;13.00;99.90;;;;;;10373930;28;20116;-78
2022/11/09 20:10:10;;;;;;;6.28;3.25;;;13.10;99.90;;;;;;10368342;28;20581;-77
2022/11/09 20:15:14;;;;;;;7.22;4.15;;;13.10;99.90;;;;;;10371555;28;20049;-78
2022/11/09 20:20:16;;;;;;;11.00;6.60;;;13.10;99.90;;;;;;10365687;28;20070;-78
2022/11/09 20:25:18;;;;;;;6.60;3.53;;;13.10;99.90;;;;;;10373716;28;20049;-76
2022/11/09 20:30:22;;;;;;;8.95;4.05;;;13.10;99.90;;;;;;10372951;28;20466;-78
2022/11/09 20:35:23;;;;;;;5.65;3.25;;;13.10;99.90;;;;;;10364463;28;20148;-78
2022/11/09 20:40:26;;;;;;;7.28;3.47;;;13.10;99.90;;;;;;10373646;28;20054;-79
2022/11/09 20:45:29;;;;;;;6.30;3.22;;;13.00;99.90;;;;;;10371242;28;20475;-77
2022/11/09 20:50:31;;;;;;;5.90;3.00;;;13.10;99.90;;;;;;10371905;28;20164;-77
2022/11/09 20:55:36;;;;;;;5.85;2.83;;;13.10;99.90;;;;;;10373328;28;20442;-77
2022/11/09 21:00:40;;;;;;;6.15;3.17;;;13.10;99.90;;;;;;10365152;28;20492;-78
2022/11/09 21:05:42;;;;;;;8.60;5.07;;;13.10;99.90;;;;;;10376656;28;20085;-79
2022/11/09 21:10:43;;;;;;;4.50;2.50;;;13.00;99.90;;;;;;10376891;28;20160;-76
2022/11/09 21:15:47;;;;;;;3.80;2.15;;;13.00;99.90;;;;;;10375931;28;20553;-76
2022/11/09 21:20:48;;;;;;;3.88;1.92;;;13.00;99.90;;;;;;10376313;28;20038;-77
2022/11/09 21:31:12;;;;;;;3.75;1.50;;;12.90;99.90;;;;;;10376088;28;20049;-75
2022/11/09 21:36:14;;;;;;;3.28;1.52;;;12.90;99.90;;;;;;10377211;28;20046;-77
2022/11/09 21:46:39;;;;;;;3.17;1.42;;;12.80;99.90;;;;;;10376487;28;20054;-76
2022/11/09 21:51:41;;;;;;;3.13;1.42;;;12.70;99.90;;;;;;10375346;28;20050;-77
2022/11/09 21:56:43;;;;;;;3.60;1.67;;;12.70;99.90;;;;;;10376086;28;20046;-74
2022/11/09 22:01:46;;;;;;;5.97;1.92;;;12.70;99.90;;;;;;10373873;28;20466;-77
2022/11/09 22:06:48;;;;;;;2.80;1.30;;;12.60;99.90;;;;;;10374560;28;20463;-76
2022/11/09 22:17:12;;;;;;;3.05;1.30;;;12.60;99.90;;;;;;10375432;28;20046;-74
2022/11/09 22:22:15;;;;;;;2.90;1.20;;;12.50;99.90;;;;;;10373938;28;20060;-76
2022/11/09 22:27:17;;;;;;;2.03;0.70;;;12.50;99.90;;;;;;10372025;28;20046;-76
2022/11/09 22:32:20;;;;;;;3.15;0.90;;;12.50;99.90;;;;;;10374138;28;20054;-77
2022/11/09 22:37:22;;;;;;;1.55;0.60;;;12.50;99.90;;;;;;10373997;28;20046;-76
2022/11/09 22:42:24;;;;;;;1.40;0.50;;;12.50;99.90;;;;;;10373231;28;20153;-77
2022/11/09 22:47:30;;;;;;;2.88;0.80;;;12.40;99.90;;;;;;10374804;28;20046;-76
2022/11/09 22:52:32;;;;;;;2.35;0.80;;;12.40;99.90;;;;;;10373030;28;20081;-75
2022/11/09 22:57:35;;;;;;;2.55;0.90;;;12.40;99.90;;;;;;10373773;28;20073;-76
